KMNV

Monroe County Airport

Madisonville, Tennessee, USA
METAR KMNV 202015Z AUTO 22007KT 180V260 10SM FEW029 SCT033 SCT041 30/23 A2998 RMK A01
Observed Flight Rules
Aug-20 @ 20:15 UTC (16 minutes ago) Visual Flight Rules
Wind Visibility Clouds
220° at 7 knots 10 miles
  • Few at 2,900' AGL
  • Scattered at 3,300' AGL
  • Scattered at 4,100' AGL
Temperatures Readings
Current 30°C / 86°F
Dewpoint 23°C / 73°F
Humidity 66%
Altimeter 29.98" Hg
Pressure 1015 hPa
Elevation 314
METAR KMNV 202015Z AUTO 22007KT 180V260 10SM FEW029 SCT033 SCT041 30/23 A2998 RMK A01
Observed Flight Rules
Aug-20 @ 20:15 UTC
(16 minutes ago)
VFR
Wind Visibility
220° at 7 knots 10 miles
Clouds
  • Few at 2,900' AGL
  • Scattered at 3,300' AGL
  • Scattered at 4,100' AGL
Temperature Dewpoint
30°C / 86°F 23°C / 73°F
Humidity Altimeter Pressure
66% 29.98" Hg 1015 hPa